createdAt,value
2017-07-30T00:02:26.699Z,7.97
2017-07-30T00:04:54.270Z,8.45
2017-07-30T00:07:22.023Z,7.90
2017-07-30T00:15:35.150Z,9.02
2017-07-30T00:18:02.691Z,9.67
2017-07-30T00:20:30.259Z,9.07
2017-07-30T00:22:57.877Z,9.02
2017-07-30T00:25:25.444Z,9.90
2017-07-30T00:27:53.047Z,9.10
2017-07-30T00:30:20.777Z,10.18
2017-07-30T00:32:49.055Z,9.90
2017-07-30T00:35:16.612Z,8.77
2017-07-30T00:37:44.397Z,9.10
2017-07-30T00:40:11.960Z,9.30
2017-07-30T00:42:39.514Z,9.33
2017-07-30T00:45:07.262Z,9.77
2017-07-30T00:47:34.842Z,11.30
2017-07-30T00:50:02.419Z,9.43
2017-07-30T00:52:30.012Z,9.87
2017-07-30T00:54:57.598Z,10.07
2017-07-30T00:57:25.158Z,10.20
2017-07-30T00:59:53.396Z,10.03
2017-07-30T01:02:20.975Z,11.10
2017-07-30T01:04:48.531Z,9.07
2017-07-30T01:07:16.303Z,10.93
2017-07-30T01:09:43.871Z,10.43
2017-07-30T01:12:11.444Z,11.27
2017-07-30T01:14:39.032Z,11.53
2017-07-30T01:17:06.599Z,10.67
2017-07-30T01:19:34.171Z,10.32
2017-07-30T01:22:01.782Z,10.80
2017-07-30T01:24:29.347Z,10.65
2017-07-30T01:26:57.168Z,10.30
2017-07-30T01:29:24.895Z,11.07
2017-07-30T01:31:52.470Z,10.73
2017-07-30T01:34:20.302Z,10.80
2017-07-30T01:36:47.911Z,10.35
2017-07-30T01:39:15.483Z,9.95
2017-07-30T01:41:43.054Z,10.40
2017-07-30T01:44:11.760Z,11.10
2017-07-30T01:46:39.347Z,10.60
2017-07-30T01:49:06.917Z,11.73
2017-07-30T01:51:34.666Z,10.80
2017-07-30T01:54:02.224Z,9.47
2017-07-30T01:56:29.799Z,11.10
2017-07-30T01:58:57.686Z,10.30
2017-07-30T02:01:25.267Z,10.57
2017-07-30T02:03:52.852Z,11.17
2017-07-30T02:06:20.550Z,11.23
2017-07-30T02:08:48.119Z,13.37
2017-07-30T02:11:15.677Z,13.20
2017-07-30T02:13:43.435Z,14.10
2017-07-30T02:16:11.007Z,12.68
2017-07-30T02:18:38.570Z,12.25
2017-07-30T02:21:06.485Z,13.82
2017-07-30T02:23:34.060Z,13.93
2017-07-30T02:26:01.614Z,14.27
2017-07-30T02:28:29.347Z,14.00
2017-07-30T02:30:56.928Z,14.00
2017-07-30T02:33:24.495Z,14.43
2017-07-30T02:35:52.111Z,16.07
2017-07-30T02:38:19.692Z,14.07
2017-07-30T02:40:47.269Z,14.15
2017-07-30T02:43:14.862Z,15.43
2017-07-30T02:45:43.343Z,15.13
2017-07-30T02:48:10.915Z,14.90
2017-07-30T02:50:39.018Z,14.47
2017-07-30T02:53:06.600Z,14.60
2017-07-30T02:55:34.154Z,14.32
2017-07-30T02:58:01.746Z,15.00
2017-07-30T03:00:29.310Z,16.40
2017-07-30T03:02:56.891Z,15.38
2017-07-30T03:05:24.634Z,16.80
2017-07-30T03:07:52.204Z,16.60
2017-07-30T03:10:19.892Z,17.23
2017-07-30T03:12:47.746Z,17.40
2017-07-30T03:15:15.803Z,16.70
2017-07-30T03:17:43.358Z,17.00
2017-07-30T03:20:11.253Z,17.52
2017-07-30T03:22:38.830Z,17.98
2017-07-30T03:25:06.407Z,17.20
2017-07-30T03:27:34.146Z,17.27
2017-07-30T03:30:01.716Z,17.42
2017-07-30T03:32:29.289Z,17.02
2017-07-30T03:34:57.072Z,17.50
2017-07-30T03:37:24.630Z,17.30
2017-07-30T03:39:52.185Z,15.40
2017-07-30T03:42:19.803Z,16.30
2017-07-30T03:44:47.386Z,17.00
2017-07-30T03:47:14.961Z,16.52
2017-07-30T03:49:42.560Z,17.23
2017-07-30T03:52:10.123Z,15.82
2017-07-30T03:54:37.709Z,14.77
2017-07-30T03:57:07.112Z,16.65
2017-07-30T03:59:34.690Z,14.80
2017-07-30T04:02:02.283Z,15.63
2017-07-30T04:04:29.895Z,15.00
2017-07-30T04:06:57.462Z,14.50
2017-07-30T04:09:25.027Z,15.15
2017-07-30T04:11:52.806Z,14.87
2017-07-30T04:14:20.383Z,13.57
2017-07-30T04:16:47.951Z,13.40
2017-07-30T04:19:15.716Z,15.38
2017-07-30T04:21:43.294Z,13.20
2017-07-30T04:24:10.863Z,12.48
2017-07-30T04:26:38.495Z,14.00
2017-07-30T04:29:06.054Z,14.38
2017-07-30T04:31:33.643Z,13.23
2017-07-30T04:34:01.546Z,14.30
2017-07-30T04:36:29.119Z,13.82
2017-07-30T04:38:56.687Z,13.50
2017-07-30T04:41:24.396Z,12.85
2017-07-30T04:43:51.968Z,12.50
2017-07-30T04:46:19.563Z,13.25
2017-07-30T04:48:47.288Z,12.77
2017-07-30T04:51:14.850Z,11.90
2017-07-30T04:53:42.415Z,11.32
2017-07-30T04:56:10.072Z,11.03
2017-07-30T04:58:37.638Z,12.10
2017-07-30T05:01:05.197Z,11.30
2017-07-30T05:03:32.937Z,11.20
2017-07-30T05:06:00.500Z,10.57
2017-07-30T05:08:28.062Z,9.60
2017-07-30T05:10:55.886Z,9.57
2017-07-30T05:13:23.445Z,9.77
2017-07-30T05:15:51.009Z,10.40
2017-07-30T05:18:18.706Z,8.73
2017-07-30T05:20:46.275Z,8.20
2017-07-30T05:23:13.843Z,8.80
2017-07-30T05:25:41.827Z,8.30
2017-07-30T05:28:09.397Z,9.67
2017-07-30T05:30:36.957Z,7.13
2017-07-30T05:33:04.548Z,8.30
2017-07-30T05:35:32.111Z,7.53
2017-07-30T05:37:59.674Z,7.90
2017-07-30T05:40:27.289Z,7.60
2017-07-30T05:42:54.849Z,8.00
2017-07-30T05:45:22.439Z,8.07
2017-07-30T05:47:50.176Z,7.50
2017-07-30T05:50:17.744Z,7.40
2017-07-30T05:52:46.210Z,7.50
2017-07-30T05:55:13.961Z,7.33
2017-07-30T05:57:41.551Z,6.67
2017-07-30T06:00:09.116Z,6.83
2017-07-30T06:02:36.750Z,6.20
2017-07-30T06:05:04.319Z,7.10
2017-07-30T06:07:31.872Z,7.43
2017-07-30T06:09:59.756Z,6.37
2017-07-30T06:12:27.323Z,6.80
2017-07-30T06:14:54.877Z,7.13
2017-07-30T06:17:22.549Z,6.80
2017-07-30T06:19:50.126Z,6.63
2017-07-30T06:22:17.695Z,6.17
2017-07-30T06:24:45.434Z,6.13
2017-07-30T06:27:12.998Z,6.33
2017-07-30T06:29:40.564Z,6.97
2017-07-30T06:32:08.347Z,6.80
2017-07-30T06:34:35.908Z,6.27
2017-07-30T06:37:03.475Z,7.67
2017-07-30T06:39:31.206Z,6.13
2017-07-30T06:41:58.764Z,6.80
2017-07-30T06:44:26.310Z,6.40
2017-07-30T06:46:54.350Z,6.97
2017-07-30T06:49:21.914Z,6.60
2017-07-30T06:51:49.474Z,6.43
2017-07-30T06:54:17.365Z,6.63
2017-07-30T06:56:44.923Z,7.30
2017-07-30T06:59:12.481Z,5.93
2017-07-30T07:01:40.090Z,7.30
2017-07-30T07:04:07.653Z,7.80
2017-07-30T07:06:35.212Z,7.60
2017-07-30T07:09:02.949Z,7.87
2017-07-30T07:11:30.499Z,7.60
2017-07-30T07:13:58.050Z,7.33
2017-07-30T07:16:25.634Z,7.80
2017-07-30T07:18:53.195Z,7.73
2017-07-30T07:21:20.792Z,8.33
2017-07-30T07:23:48.537Z,7.60
2017-07-30T07:26:16.101Z,7.33
2017-07-30T07:28:43.690Z,8.37
2017-07-30T07:31:11.369Z,8.00
2017-07-30T07:33:39.999Z,7.80
2017-07-30T07:36:07.571Z,8.50
2017-07-30T07:38:35.304Z,8.70
2017-07-30T07:41:02.874Z,9.23
2017-07-30T07:43:30.414Z,8.57
2017-07-30T07:45:58.125Z,8.97
2017-07-30T07:48:25.679Z,8.70
2017-07-30T07:50:53.241Z,8.90
2017-07-30T07:53:20.833Z,8.20
2017-07-30T07:55:48.391Z,7.40
2017-07-30T07:58:15.947Z,8.33
2017-07-30T08:00:43.679Z,7.43
2017-07-30T08:03:11.239Z,8.10
2017-07-30T08:05:38.794Z,7.10
2017-07-30T08:08:06.547Z,6.90
2017-07-30T08:10:34.100Z,7.90
2017-07-30T08:13:01.644Z,7.90
2017-07-30T08:15:29.353Z,7.03
2017-07-30T08:17:56.948Z,6.20
2017-07-30T08:20:24.504Z,7.53
2017-07-30T08:22:52.083Z,7.13
2017-07-30T08:25:19.627Z,6.37
2017-07-30T08:27:47.177Z,7.17
2017-07-30T08:30:14.905Z,7.30
2017-07-30T08:32:42.455Z,7.00
2017-07-30T08:35:10.012Z,6.13
2017-07-30T08:37:37.607Z,6.60
2017-07-30T08:40:05.155Z,6.90
2017-07-30T08:42:32.711Z,6.23
2017-07-30T08:45:00.394Z,6.20
2017-07-30T08:47:28.185Z,7.23
2017-07-30T08:49:55.758Z,6.10
2017-07-30T08:52:23.523Z,7.03
2017-07-30T08:54:51.100Z,6.20
2017-07-30T08:57:18.663Z,5.93
2017-07-30T08:59:46.281Z,5.60
2017-07-30T09:02:13.837Z,5.83
2017-07-30T09:04:41.400Z,5.80
2017-07-30T09:07:09.095Z,6.00
2017-07-30T09:09:36.671Z,6.10
2017-07-30T09:12:04.212Z,5.30
2017-07-30T09:14:32.974Z,5.93
2017-07-30T09:17:00.516Z,5.60
2017-07-30T09:19:28.089Z,5.37
2017-07-30T09:21:55.679Z,4.60
2017-07-30T09:24:23.234Z,5.97
2017-07-30T09:26:50.816Z,4.90
2017-07-30T09:29:18.580Z,5.63
2017-07-30T09:31:46.121Z,5.13
2017-07-30T09:34:13.678Z,5.57
2017-07-30T09:36:41.262Z,5.60
2017-07-30T09:39:08.817Z,5.20
2017-07-30T09:41:36.373Z,5.10
2017-07-30T09:44:03.969Z,5.80
2017-07-30T09:46:31.516Z,5.07
2017-07-30T09:48:59.055Z,5.70
2017-07-30T09:51:26.655Z,5.50
2017-07-30T09:53:54.214Z,5.40
2017-07-30T09:56:21.766Z,6.03
2017-07-30T09:58:49.987Z,5.47
2017-07-30T10:01:17.538Z,5.47
2017-07-30T10:03:45.083Z,5.90
2017-07-30T10:06:12.831Z,5.70
2017-07-30T10:08:40.397Z,5.40
2017-07-30T10:11:07.951Z,4.80
2017-07-30T10:13:35.541Z,5.10
2017-07-30T10:16:03.085Z,5.57
2017-07-30T10:18:30.655Z,5.90
2017-07-30T10:20:58.245Z,5.33
2017-07-30T10:23:25.803Z,5.20
2017-07-30T10:25:53.392Z,4.67
2017-07-30T10:28:21.196Z,5.13
2017-07-30T10:30:48.740Z,4.70
2017-07-30T10:33:16.291Z,5.67
2017-07-30T10:35:43.886Z,5.37
2017-07-30T10:38:11.484Z,5.23
2017-07-30T10:40:39.044Z,4.90
2017-07-30T10:43:06.822Z,4.53
2017-07-30T10:45:34.466Z,5.90
2017-07-30T10:48:02.063Z,5.03
2017-07-30T10:50:29.769Z,5.20
2017-07-30T10:52:57.341Z,5.17
2017-07-30T10:55:24.914Z,4.80
2017-07-30T10:57:52.542Z,5.30
2017-07-30T11:00:20.152Z,5.13
2017-07-30T11:02:47.701Z,4.87
2017-07-30T11:05:15.981Z,5.23
2017-07-30T11:07:43.542Z,5.23
2017-07-30T11:10:11.085Z,4.20
2017-07-30T11:12:38.938Z,4.23
2017-07-30T11:15:06.487Z,4.17
2017-07-30T11:17:34.045Z,5.07
2017-07-30T11:20:01.780Z,4.83
2017-07-30T11:22:30.587Z,4.60
2017-07-30T11:24:58.129Z,4.50
2017-07-30T11:27:26.023Z,4.40
2017-07-30T11:29:53.590Z,4.57
2017-07-30T11:32:21.151Z,3.50
2017-07-30T11:34:48.951Z,4.00
2017-07-30T11:37:16.519Z,3.93
2017-07-30T11:39:44.059Z,3.73
2017-07-30T11:42:11.654Z,3.60
2017-07-30T11:44:39.232Z,3.27
2017-07-30T11:47:06.782Z,3.57
2017-07-30T11:49:34.606Z,3.60
2017-07-30T11:52:02.163Z,3.13
2017-07-30T11:54:29.742Z,3.60
2017-07-30T11:56:57.459Z,3.53
2017-07-30T11:59:25.006Z,3.20
2017-07-30T12:01:52.553Z,3.00
2017-07-30T12:04:20.285Z,3.17
2017-07-30T12:06:47.824Z,3.53
2017-07-30T12:09:15.368Z,3.40
2017-07-30T12:11:43.083Z,3.20
2017-07-30T12:14:10.642Z,3.17
2017-07-30T12:16:38.179Z,3.20
2017-07-30T12:19:05.752Z,2.63
2017-07-30T12:21:33.312Z,3.70
2017-07-30T12:24:00.862Z,3.00
2017-07-30T12:26:28.615Z,3.20
2017-07-30T12:28:56.171Z,2.80
2017-07-30T12:31:23.724Z,3.40
2017-07-30T12:33:51.455Z,3.27
2017-07-30T12:36:19.011Z,2.80
2017-07-30T12:38:46.551Z,3.30
2017-07-30T12:41:14.418Z,3.23
2017-07-30T12:43:41.972Z,2.80
2017-07-30T12:46:09.522Z,2.87
2017-07-30T12:48:37.251Z,3.60
2017-07-30T12:51:04.807Z,2.73
2017-07-30T12:53:32.359Z,3.27
2017-07-30T12:55:59.959Z,3.00
2017-07-30T12:58:27.507Z,3.30
2017-07-30T13:00:55.063Z,2.83
2017-07-30T13:03:22.761Z,2.93
2017-07-30T13:05:50.307Z,2.40
2017-07-30T13:08:17.847Z,3.07
2017-07-30T13:10:45.724Z,2.60
2017-07-30T13:13:13.279Z,2.77
2017-07-30T13:15:40.826Z,2.43
2017-07-30T13:18:08.452Z,2.50
2017-07-30T13:20:35.995Z,2.60
2017-07-30T13:23:03.550Z,1.90
2017-07-30T13:25:31.310Z,2.20
2017-07-30T13:27:58.868Z,2.20
2017-07-30T13:30:26.419Z,2.50
2017-07-30T13:32:54.023Z,2.57
2017-07-30T13:35:21.574Z,2.70
2017-07-30T13:37:49.115Z,2.40
2017-07-30T13:40:16.799Z,2.73
2017-07-30T13:42:44.416Z,2.60
2017-07-30T13:45:11.953Z,2.60
2017-07-30T13:47:39.535Z,2.97
2017-07-30T13:50:07.087Z,2.60
2017-07-30T13:52:34.623Z,3.07
2017-07-30T13:55:02.298Z,3.03
2017-07-30T13:57:29.851Z,2.80
2017-07-30T13:59:57.402Z,2.23
2017-07-30T14:02:25.147Z,2.37
2017-07-30T14:04:52.710Z,2.40
2017-07-30T14:07:20.482Z,2.73
2017-07-30T14:09:48.060Z,2.90
2017-07-30T14:12:15.617Z,2.50
2017-07-30T14:14:43.159Z,2.83
2017-07-30T14:17:10.772Z,2.77
2017-07-30T14:19:38.367Z,2.53
2017-07-30T14:22:05.922Z,2.20
2017-07-30T14:24:33.599Z,2.80
2017-07-30T14:27:01.159Z,2.83
2017-07-30T14:29:28.726Z,2.40
2017-07-30T14:31:56.553Z,2.47
2017-07-30T14:34:24.104Z,2.70
2017-07-30T14:36:52.182Z,3.03
2017-07-30T14:39:19.942Z,2.40
2017-07-30T14:41:47.496Z,2.30
2017-07-30T14:44:15.096Z,8.90
2017-07-30T14:46:42.820Z,3.10
2017-07-30T14:49:10.365Z,2.90
2017-07-30T14:51:37.973Z,2.70
2017-07-30T14:54:05.658Z,2.47
2017-07-30T14:56:33.204Z,2.60
2017-07-30T14:59:00.760Z,2.83
2017-07-30T15:01:28.429Z,2.40
2017-07-30T15:03:55.994Z,2.40
2017-07-30T15:06:23.552Z,2.80
2017-07-30T15:08:51.245Z,2.87
2017-07-30T15:11:18.800Z,3.20
2017-07-30T15:13:46.935Z,2.50
2017-07-30T15:16:14.624Z,2.20
2017-07-30T15:18:42.206Z,2.60
2017-07-30T15:21:09.760Z,2.70
2017-07-30T15:23:37.355Z,2.13
2017-07-30T15:26:04.949Z,2.87
2017-07-30T15:28:32.555Z,2.60
2017-07-30T15:31:00.284Z,2.70
2017-07-30T15:33:27.833Z,2.80
2017-07-30T15:35:55.391Z,2.00
2017-07-30T15:38:23.032Z,2.30
2017-07-30T15:40:50.619Z,2.47
2017-07-30T15:43:18.168Z,1.83
2017-07-30T15:45:45.776Z,3.00
2017-07-30T15:48:13.349Z,2.73
2017-07-30T15:50:40.896Z,2.43
2017-07-30T15:53:08.504Z,2.33
2017-07-30T15:55:36.055Z,2.43
2017-07-30T15:58:03.795Z,2.87
2017-07-30T16:00:31.383Z,2.60
2017-07-30T16:02:58.946Z,2.60
2017-07-30T16:05:26.492Z,2.67
2017-07-30T16:07:54.180Z,2.40
2017-07-30T16:10:21.738Z,2.37
2017-07-30T16:12:49.289Z,2.70
2017-07-30T16:15:17.175Z,3.00
2017-07-30T16:17:44.736Z,3.10
2017-07-30T16:20:12.332Z,2.83
2017-07-30T16:22:40.071Z,3.30
2017-07-30T16:25:07.649Z,2.73
2017-07-30T16:27:35.197Z,2.43
2017-07-30T16:30:02.892Z,3.30
2017-07-30T16:32:30.444Z,3.80
2017-07-30T16:34:58.001Z,3.00
2017-07-30T16:37:25.765Z,2.97
2017-07-30T16:39:53.335Z,3.40
2017-07-30T16:42:20.899Z,3.13
2017-07-30T16:44:48.496Z,3.43
2017-07-30T16:47:16.102Z,3.03
2017-07-30T16:49:43.654Z,3.50
2017-07-30T16:52:11.278Z,2.90
2017-07-30T16:54:38.878Z,2.70
2017-07-30T16:57:06.436Z,3.13
2017-07-30T16:59:34.180Z,3.47
2017-07-30T17:02:01.767Z,2.83
2017-07-30T17:04:29.337Z,3.37
2017-07-30T17:06:56.923Z,3.13
2017-07-30T17:09:24.596Z,2.90
2017-07-30T17:11:52.159Z,3.30
2017-07-30T17:14:19.884Z,3.30
2017-07-30T17:16:47.762Z,3.27
2017-07-30T17:19:15.408Z,3.10
2017-07-30T17:21:43.215Z,3.43
2017-07-30T17:24:10.761Z,3.83
2017-07-30T17:26:38.314Z,3.43
2017-07-30T17:29:06.904Z,3.00
2017-07-30T17:31:34.470Z,3.47
2017-07-30T17:34:02.027Z,3.63
2017-07-30T17:36:29.742Z,2.87
2017-07-30T17:38:57.427Z,2.10
2017-07-30T17:41:25.024Z,2.70
2017-07-30T17:43:52.791Z,2.67
2017-07-30T17:46:20.404Z,2.97
2017-07-30T17:48:47.977Z,2.10
2017-07-30T17:51:15.723Z,2.40
2017-07-30T17:53:43.327Z,2.13
2017-07-30T17:56:11.023Z,2.07
2017-07-30T17:58:39.648Z,2.70
2017-07-30T18:01:07.207Z,2.53
2017-07-30T18:03:35.747Z,2.57
2017-07-30T18:06:03.418Z,2.80
2017-07-30T18:08:31.486Z,3.10
2017-07-30T18:10:59.339Z,3.33
2017-07-30T18:13:27.382Z,2.43
2017-07-30T18:15:54.955Z,2.70
2017-07-30T18:18:22.542Z,2.90
2017-07-30T18:20:50.291Z,2.37
2017-07-30T18:23:18.167Z,2.87
2017-07-30T18:25:45.765Z,2.43
2017-07-30T18:28:13.375Z,3.10
2017-07-30T18:30:40.922Z,2.50
2017-07-30T18:33:08.715Z,2.20
2017-07-30T18:35:36.562Z,3.20
2017-07-30T18:38:04.152Z,2.67
2017-07-30T18:40:31.709Z,2.40
2017-07-30T18:42:59.357Z,2.13
2017-07-30T18:45:27.053Z,2.53
2017-07-30T18:47:54.668Z,2.07
2017-07-30T18:50:22.450Z,2.20
2017-07-30T18:52:50.084Z,2.13
2017-07-30T18:55:17.853Z,2.97
2017-07-30T18:57:45.479Z,2.13
2017-07-30T19:00:13.035Z,2.50
2017-07-30T19:02:40.585Z,2.20
2017-07-30T19:05:08.391Z,2.00
2017-07-30T19:07:36.019Z,2.23
2017-07-30T19:10:03.596Z,2.43
2017-07-30T19:12:32.386Z,2.40
2017-07-30T19:14:59.973Z,2.40
2017-07-30T19:17:27.802Z,2.40
2017-07-30T19:19:56.094Z,2.50
2017-07-30T19:22:23.817Z,2.53
2017-07-30T19:24:51.381Z,2.33
2017-07-30T19:27:19.135Z,2.20
2017-07-30T19:29:48.010Z,2.33
2017-07-30T19:32:15.591Z,2.40
2017-07-30T19:34:44.593Z,2.43
2017-07-30T19:37:12.726Z,2.70
2017-07-30T19:39:40.422Z,2.73
2017-07-30T19:42:08.822Z,2.80
2017-07-30T19:44:36.596Z,2.80
2017-07-30T19:47:04.185Z,2.97
2017-07-30T19:49:31.819Z,2.70
2017-07-30T19:51:59.436Z,2.20
2017-07-30T19:54:27.123Z,2.40
2017-07-30T19:56:54.822Z,2.40
2017-07-30T19:59:22.388Z,2.27
2017-07-30T20:01:50.748Z,2.60
2017-07-30T20:04:18.521Z,2.95
2017-07-30T20:06:46.120Z,2.22
2017-07-30T20:09:13.727Z,2.20
2017-07-30T20:11:41.474Z,2.05
2017-07-30T20:14:09.140Z,2.10
2017-07-30T20:16:36.970Z,2.42
2017-07-30T20:19:05.332Z,1.90
2017-07-30T20:21:32.988Z,2.03
2017-07-30T20:24:00.567Z,1.95
2017-07-30T20:26:28.545Z,1.80
2017-07-30T20:28:56.582Z,2.30
2017-07-30T20:31:26.773Z,1.73
2017-07-30T20:33:54.683Z,2.40
2017-07-30T20:36:22.997Z,1.50
2017-07-30T20:38:50.802Z,2.25
2017-07-30T20:41:19.279Z,2.30
2017-07-30T20:43:49.427Z,1.65
2017-07-30T20:46:19.166Z,1.95
2017-07-30T20:48:46.797Z,1.77
2017-07-30T20:51:14.356Z,2.08
2017-07-30T20:53:42.043Z,1.83
2017-07-30T20:56:09.648Z,2.30
2017-07-30T20:58:37.215Z,1.90
2017-07-30T21:01:04.967Z,2.03
2017-07-30T21:03:32.601Z,1.77
2017-07-30T21:06:00.152Z,1.62
2017-07-30T21:08:27.751Z,1.62
2017-07-30T21:10:55.318Z,2.03
2017-07-30T21:13:22.877Z,1.98
2017-07-30T21:15:50.730Z,2.33
2017-07-30T21:18:18.303Z,2.33
2017-07-30T21:20:45.889Z,1.52
2017-07-30T21:23:13.796Z,2.12
2017-07-30T21:25:41.366Z,1.73
2017-07-30T21:28:08.934Z,2.30
2017-07-30T21:30:36.889Z,1.75
2017-07-30T21:33:04.481Z,1.80
2017-07-30T21:35:32.038Z,1.65
2017-07-30T21:37:59.630Z,1.95
2017-07-30T21:40:27.203Z,2.03
2017-07-30T21:42:54.767Z,1.83
2017-07-30T21:45:22.656Z,2.15
2017-07-30T21:47:50.229Z,1.87
2017-07-30T21:50:17.791Z,2.00
2017-07-30T21:52:45.562Z,1.73
2017-07-30T21:55:13.136Z,2.20
2017-07-30T21:57:40.702Z,2.22
2017-07-30T22:00:08.387Z,2.05
2017-07-30T22:02:35.970Z,2.80
2017-07-30T22:05:03.528Z,1.55
2017-07-30T22:07:31.286Z,2.75
2017-07-30T22:09:58.835Z,2.62
2017-07-30T22:12:26.402Z,2.45
2017-07-30T22:14:54.039Z,1.80
2017-07-30T22:17:21.637Z,2.87
2017-07-30T22:19:49.249Z,2.45
2017-07-30T22:22:16.943Z,2.60
2017-07-30T22:24:44.511Z,2.33
2017-07-30T22:27:12.092Z,2.47
2017-07-30T22:29:39.694Z,2.40
2017-07-30T22:32:07.264Z,2.80
2017-07-30T22:34:34.811Z,2.78
2017-07-30T22:37:02.465Z,2.80
2017-07-30T22:39:30.015Z,2.10
2017-07-30T22:41:57.582Z,2.87
2017-07-30T22:44:25.206Z,2.67
2017-07-30T22:46:52.754Z,3.17
2017-07-30T22:49:20.318Z,2.55
2017-07-30T22:51:48.007Z,2.87
2017-07-30T22:54:15.561Z,2.12
2017-07-30T22:56:43.111Z,2.65
2017-07-30T22:59:10.724Z,2.40
2017-07-30T23:01:38.323Z,2.37
2017-07-30T23:04:05.882Z,2.90
2017-07-30T23:06:33.609Z,2.75
2017-07-30T23:09:01.184Z,3.08
2017-07-30T23:11:28.745Z,2.35
2017-07-30T23:13:56.454Z,2.35
2017-07-30T23:16:24.023Z,2.75
2017-07-30T23:18:51.567Z,2.87
2017-07-30T23:21:19.294Z,2.85
2017-07-30T23:23:46.859Z,2.50
2017-07-30T23:26:14.434Z,2.10
2017-07-30T23:28:42.031Z,2.95
2017-07-30T23:31:09.608Z,2.55
2017-07-30T23:33:37.167Z,2.53
2017-07-30T23:36:04.754Z,2.30
2017-07-30T23:38:32.318Z,2.78
2017-07-30T23:40:59.895Z,2.50
2017-07-30T23:43:27.774Z,3.50
2017-07-30T23:45:55.330Z,2.60
2017-07-30T23:48:22.922Z,3.15
2017-07-30T23:50:50.774Z,2.75
2017-07-30T23:53:18.354Z,2.67
2017-07-30T23:55:45.918Z,2.37
2017-07-30T23:58:13.528Z,2.65
